Terminal Aerodrome Forecast
Issued by NWS

Home | Current Version | Previous Version | Text Only | Print | Product List | Glossary On
Versions: 1 2 3 4 5 6 7 8 9 10 11 12 13 14
629
FTUS43 KOAX 200522
TAFBFF
TAF
KBFF 200522Z 2006/2106 33005KT P6SM BKN250
     FM201200 30006KT P6SM BKN150 OVC250
     FM201700 30012KT P6SM BKN100 OVC200=

USA.gov is the U.S. government's official web portal to all federal, state and local government web resources and services.